sensor_id;sensor_type;location;lat;lon;timestamp;P1;durP1;ratioP1;P2;durP2;ratioP2
23009;SDS011;11671;49.990;8.028;2023-09-18T00:02:18;908.08;;;841.88;;
23009;SDS011;11671;49.990;8.028;2023-09-18T00:04:44;906.35;;;839.90;;
23009;SDS011;11671;49.990;8.028;2023-09-18T00:09:35;936.58;;;868.40;;
23009;SDS011;11671;49.990;8.028;2023-09-18T00:14:27;920.97;;;854.13;;
23009;SDS011;11671;49.990;8.028;2023-09-18T00:16:52;913.22;;;846.47;;
23009;SDS011;11671;49.990;8.028;2023-09-18T00:21:43;933.08;;;865.25;;
23009;SDS011;11671;49.990;8.028;2023-09-18T00:24:09;917.58;;;850.35;;
23009;SDS011;11671;49.990;8.028;2023-09-18T00:26:36;954.05;;;884.20;;
23009;SDS011;11671;49.990;8.028;2023-09-18T00:31:27;964.95;;;895.20;;
23009;SDS011;11671;49.990;8.028;2023-09-18T00:36:18;919.03;;;852.25;;
23009;SDS011;11671;49.990;8.028;2023-09-18T00:41:11;944.30;;;876.10;;
23009;SDS011;11671;49.990;8.028;2023-09-18T00:46:02;957.85;;;888.97;;
23009;SDS011;11671;49.990;8.028;2023-09-18T00:50:54;973.67;;;903.50;;
23009;SDS011;11671;49.990;8.028;2023-09-18T00:53:21;957.90;;;888.38;;
23009;SDS011;11671;49.990;8.028;2023-09-18T00:55:50;944.67;;;875.30;;
23009;SDS011;11671;49.990;8.028;2023-09-18T00:58:18;937.38;;;868.95;;
23009;SDS011;11671;49.990;8.028;2023-09-18T01:03:09;964.20;;;894.75;;
23009;SDS011;11671;49.990;8.028;2023-09-18T01:05:36;953.55;;;884.22;;
23009;SDS011;11671;49.990;8.028;2023-09-18T01:10:34;975.80;;;905.22;;
23009;SDS011;11671;49.990;8.028;2023-09-18T01:13:14;968.13;;;898.42;;
23009;SDS011;11671;49.990;8.028;2023-09-18T01:15:52;953.53;;;884.28;;
23009;SDS011;11671;49.990;8.028;2023-09-18T01:18:22;938.20;;;869.20;;
23009;SDS011;11671;49.990;8.028;2023-09-18T01:23:14;915.45;;;849.22;;
23009;SDS011;11671;49.990;8.028;2023-09-18T01:25:39;951.55;;;881.92;;
23009;SDS011;11671;49.990;8.028;2023-09-18T01:30:30;980.45;;;909.92;;
23009;SDS011;11671;49.990;8.028;2023-09-18T01:35:24;938.75;;;870.80;;
23009;SDS011;11671;49.990;8.028;2023-09-18T01:37:57;942.22;;;873.53;;
23009;SDS011;11671;49.990;8.028;2023-09-18T01:40:24;925.38;;;857.70;;
23009;SDS011;11671;49.990;8.028;2023-09-18T01:42:51;884.60;;;819.15;;
23009;SDS011;11671;49.990;8.028;2023-09-18T01:45:17;909.10;;;841.53;;
23009;SDS011;11671;49.990;8.028;2023-09-18T01:50:09;958.10;;;888.85;;
23009;SDS011;11671;49.990;8.028;2023-09-18T01:52:35;962.03;;;892.15;;
23009;SDS011;11671;49.990;8.028;2023-09-18T01:57:26;966.60;;;896.88;;
23009;SDS011;11671;49.990;8.028;2023-09-18T02:02:17;957.00;;;887.90;;
23009;SDS011;11671;49.990;8.028;2023-09-18T02:04:43;965.88;;;895.55;;
23009;SDS011;11671;49.990;8.028;2023-09-18T02:07:10;962.65;;;891.97;;
23009;SDS011;11671;49.990;8.028;2023-09-18T02:12:01;970.83;;;900.83;;
23009;SDS011;11671;49.990;8.028;2023-09-18T02:14:27;956.65;;;886.80;;
23009;SDS011;11671;49.990;8.028;2023-09-18T02:16:56;933.38;;;864.75;;
23009;SDS011;11671;49.990;8.028;2023-09-18T02:21:47;952.10;;;883.42;;
23009;SDS011;11671;49.990;8.028;2023-09-18T02:26:38;963.03;;;893.47;;
23009;SDS011;11671;49.990;8.028;2023-09-18T02:31:31;971.42;;;901.53;;
23009;SDS011;11671;49.990;8.028;2023-09-18T02:36:22;946.85;;;878.83;;
23009;SDS011;11671;49.990;8.028;2023-09-18T02:41:13;947.13;;;878.97;;
23009;SDS011;11671;49.990;8.028;2023-09-18T02:43:39;938.28;;;870.38;;
23009;SDS011;11671;49.990;8.028;2023-09-18T02:48:30;987.15;;;916.47;;
23009;SDS011;11671;49.990;8.028;2023-09-18T02:53:23;990.67;;;920.22;;
23009;SDS011;11671;49.990;8.028;2023-09-18T02:55:50;972.72;;;902.70;;
23009;SDS011;11671;49.990;8.028;2023-09-18T02:58:18;975.42;;;904.78;;
23009;SDS011;11671;49.990;8.028;2023-09-18T03:00:47;958.72;;;889.17;;
23009;SDS011;11671;49.990;8.028;2023-09-18T03:03:15;979.22;;;908.13;;
23009;SDS011;11671;49.990;8.028;2023-09-18T03:05:41;946.08;;;877.35;;
23009;SDS011;11671;49.990;8.028;2023-09-18T03:08:08;956.17;;;886.35;;
23009;SDS011;11671;49.990;8.028;2023-09-18T03:10:35;987.70;;;916.50;;
23009;SDS011;11671;49.990;8.028;2023-09-18T03:13:01;961.70;;;892.00;;
23009;SDS011;11671;49.990;8.028;2023-09-18T03:15:27;972.97;;;902.72;;
23009;SDS011;11671;49.990;8.028;2023-09-18T03:20:21;991.67;;;921.33;;
23009;SDS011;11671;49.990;8.028;2023-09-18T03:22:48;987.05;;;916.33;;
23009;SDS011;11671;49.990;8.028;2023-09-18T03:27:39;999.67;;;928.63;;
23009;SDS011;11671;49.990;8.028;2023-09-18T03:32:30;1008.60;;;937.40;;
23009;SDS011;11671;49.990;8.028;2023-09-18T03:37:21;993.35;;;923.00;;
23009;SDS011;11671;49.990;8.028;2023-09-18T03:42:12;1000.35;;;929.47;;
23009;SDS011;11671;49.990;8.028;2023-09-18T03:47:03;991.28;;;920.92;;
23009;SDS011;11671;49.990;8.028;2023-09-18T03:49:29;1016.60;;;944.42;;
23009;SDS011;11671;49.990;8.028;2023-09-18T03:54:20;1030.45;;;957.45;;
23009;SDS011;11671;49.990;8.028;2023-09-18T03:59:12;1039.20;;;965.63;;
23009;SDS011;11671;49.990;8.028;2023-09-18T04:01:38;1045.15;;;970.85;;
23009;SDS011;11671;49.990;8.028;2023-09-18T04:04:04;997.20;;;925.85;;
23009;SDS011;11671;49.990;8.028;2023-09-18T04:09:05;1038.32;;;964.72;;
23009;SDS011;11671;49.990;8.028;2023-09-18T04:13:57;1056.90;;;981.42;;
23009;SDS011;11671;49.990;8.028;2023-09-18T04:16:24;1068.88;;;992.45;;
23009;SDS011;11671;49.990;8.028;2023-09-18T04:18:50;1047.95;;;972.70;;
23009;SDS011;11671;49.990;8.028;2023-09-18T04:23:41;1023.60;;;950.97;;
23009;SDS011;11671;49.990;8.028;2023-09-18T04:28:32;1039.68;;;966.13;;
23009;SDS011;11671;49.990;8.028;2023-09-18T04:33:23;1033.05;;;959.80;;
23009;SDS011;11671;49.990;8.028;2023-09-18T04:35:50;1038.20;;;964.70;;
23009;SDS011;11671;49.990;8.028;2023-09-18T04:40:42;1038.68;;;965.45;;
23009;SDS011;11671;49.990;8.028;2023-09-18T04:45:33;1024.28;;;952.20;;
23009;SDS011;11671;49.990;8.028;2023-09-18T04:50:24;1024.68;;;952.28;;
23009;SDS011;11671;49.990;8.028;2023-09-18T04:52:51;1053.65;;;978.83;;
23009;SDS011;11671;49.990;8.028;2023-09-18T04:55:19;1057.93;;;982.72;;
23009;SDS011;11671;49.990;8.028;2023-09-18T05:00:10;1043.80;;;969.90;;
23009;SDS011;11671;49.990;8.028;2023-09-18T05:02:37;1026.93;;;953.85;;
23009;SDS011;11671;49.990;8.028;2023-09-18T05:07:29;986.05;;;916.33;;
23009;SDS011;11671;49.990;8.028;2023-09-18T05:12:21;1004.58;;;933.53;;
23009;SDS011;11671;49.990;8.028;2023-09-18T05:14:47;1026.00;;;952.85;;
23009;SDS011;11671;49.990;8.028;2023-09-18T05:19:42;1035.15;;;961.90;;
23009;SDS011;11671;49.990;8.028;2023-09-18T05:22:08;1044.35;;;970.05;;
23009;SDS011;11671;49.990;8.028;2023-09-18T05:24:40;988.97;;;918.00;;
23009;SDS011;11671;49.990;8.028;2023-09-18T05:27:05;1011.95;;;939.20;;
23009;SDS011;11671;49.990;8.028;2023-09-18T05:29:32;1023.67;;;950.05;;
23009;SDS011;11671;49.990;8.028;2023-09-18T05:31:58;1017.42;;;944.28;;
23009;SDS011;11671;49.990;8.028;2023-09-18T05:36:49;1031.50;;;958.05;;
23009;SDS011;11671;49.990;8.028;2023-09-18T05:41:40;1031.80;;;958.40;;
23009;SDS011;11671;49.990;8.028;2023-09-18T05:46:33;1018.67;;;946.08;;
23009;SDS011;11671;49.990;8.028;2023-09-18T05:48:59;1025.35;;;951.60;;
23009;SDS011;11671;49.990;8.028;2023-09-18T05:53:51;1036.18;;;962.70;;
23009;SDS011;11671;49.990;8.028;2023-09-18T05:58:42;1028.18;;;954.30;;
23009;SDS011;11671;49.990;8.028;2023-09-18T06:03:34;1011.35;;;939.20;;
23009;SDS011;11671;49.990;8.028;2023-09-18T06:06:02;1025.90;;;952.55;;
23009;SDS011;11671;49.990;8.028;2023-09-18T06:08:28;988.13;;;916.78;;
23009;SDS011;11671;49.990;8.028;2023-09-18T06:10:55;1010.03;;;936.90;;
23009;SDS011;11671;49.990;8.028;2023-09-18T06:13:21;993.70;;;921.95;;
23009;SDS011;11671;49.990;8.028;2023-09-18T06:15:49;978.90;;;907.65;;
23009;SDS011;11671;49.990;8.028;2023-09-18T06:18:17;959.13;;;889.30;;
23009;SDS011;11671;49.990;8.028;2023-09-18T06:20:45;951.85;;;882.28;;
23009;SDS011;11671;49.990;8.028;2023-09-18T06:25:37;953.47;;;884.35;;
23009;SDS011;11671;49.990;8.028;2023-09-18T06:28:04;954.17;;;884.47;;
23009;SDS011;11671;49.990;8.028;2023-09-18T06:32:58;982.80;;;911.65;;
23009;SDS011;11671;49.990;8.028;2023-09-18T06:37:49;994.38;;;922.95;;
23009;SDS011;11671;49.990;8.028;2023-09-18T06:40:15;985.50;;;913.58;;
23009;SDS011;11671;49.990;8.028;2023-09-18T06:45:06;1012.70;;;939.35;;
23009;SDS011;11671;49.990;8.028;2023-09-18T06:47:32;1000.67;;;927.13;;
23009;SDS011;11671;49.990;8.028;2023-09-18T06:49:59;1012.72;;;938.22;;
23009;SDS011;11671;49.990;8.028;2023-09-18T06:52:25;964.83;;;893.70;;
23009;SDS011;11671;49.990;8.028;2023-09-18T06:54:51;981.40;;;908.10;;
23009;SDS011;11671;49.990;8.028;2023-09-18T06:57:17;949.50;;;878.58;;
23009;SDS011;11671;49.990;8.028;2023-09-18T07:02:09;964.13;;;892.88;;
23009;SDS011;11671;49.990;8.028;2023-09-18T07:07:02;924.00;;;855.03;;
23009;SDS011;11671;49.990;8.028;2023-09-18T07:09:28;943.25;;;873.03;;
23009;SDS011;11671;49.990;8.028;2023-09-18T07:14:19;909.25;;;841.63;;
23009;SDS011;11671;49.990;8.028;2023-09-18T07:19:10;946.88;;;876.70;;
23009;SDS011;11671;49.990;8.028;2023-09-18T07:21:41;930.08;;;860.65;;
23009;SDS011;11671;49.990;8.028;2023-09-18T07:24:10;918.60;;;849.45;;
23009;SDS011;11671;49.990;8.028;2023-09-18T07:26:41;906.53;;;838.22;;
23009;SDS011;11671;49.990;8.028;2023-09-18T07:29:08;877.50;;;810.65;;
23009;SDS011;11671;49.990;8.028;2023-09-18T07:34:00;900.22;;;832.80;;
23009;SDS011;11671;49.990;8.028;2023-09-18T07:38:51;901.92;;;834.20;;
23009;SDS011;11671;49.990;8.028;2023-09-18T07:41:16;890.03;;;822.67;;
23009;SDS011;11671;49.990;8.028;2023-09-18T07:43:44;875.45;;;808.60;;
23009;SDS011;11671;49.990;8.028;2023-09-18T07:48:35;906.38;;;837.60;;
23009;SDS011;11671;49.990;8.028;2023-09-18T07:51:02;869.80;;;803.28;;
23009;SDS011;11671;49.990;8.028;2023-09-18T07:55:56;874.65;;;807.58;;
23009;SDS011;11671;49.990;8.028;2023-09-18T07:58:23;861.58;;;794.97;;
23009;SDS011;11671;49.990;8.028;2023-09-18T08:00:52;840.92;;;776.03;;
23009;SDS011;11671;49.990;8.028;2023-09-18T08:03:22;863.83;;;796.65;;
23009;SDS011;11671;49.990;8.028;2023-09-18T08:05:51;843.95;;;778.20;;
23009;SDS011;11671;49.990;8.028;2023-09-18T08:08:19;842.00;;;776.08;;
23009;SDS011;11671;49.990;8.028;2023-09-18T08:10:48;859.63;;;792.25;;
23009;SDS011;11671;49.990;8.028;2023-09-18T08:13:17;862.90;;;795.22;;
23009;SDS011;11671;49.990;8.028;2023-09-18T08:15:44;840.78;;;775.08;;
23009;SDS011;11671;49.990;8.028;2023-09-18T08:18:10;842.97;;;777.10;;
23009;SDS011;11671;49.990;8.028;2023-09-18T08:20:40;839.22;;;773.50;;
23009;SDS011;11671;49.990;8.028;2023-09-18T08:23:09;834.33;;;769.00;;
23009;SDS011;11671;49.990;8.028;2023-09-18T08:25:37;832.28;;;767.30;;
23009;SDS011;11671;49.990;8.028;2023-09-18T08:31:27;847.10;;;781.10;;
23009;SDS011;11671;49.990;8.028;2023-09-18T08:33:52;850.08;;;783.63;;
23009;SDS011;11671;49.990;8.028;2023-09-18T08:36:18;837.50;;;772.17;;
23009;SDS011;11671;49.990;8.028;2023-09-18T08:38:44;815.65;;;751.75;;
23009;SDS011;11671;49.990;8.028;2023-09-18T08:41:11;842.63;;;777.00;;
23009;SDS011;11671;49.990;8.028;2023-09-18T08:43:39;804.33;;;741.83;;
23009;SDS011;11671;49.990;8.028;2023-09-18T08:46:07;829.88;;;765.50;;
23009;SDS011;11671;49.990;8.028;2023-09-18T08:48:34;810.45;;;747.60;;
23009;SDS011;11671;49.990;8.028;2023-09-18T08:51:01;812.08;;;748.95;;
23009;SDS011;11671;49.990;8.028;2023-09-18T08:53:30;824.10;;;760.30;;
23009;SDS011;11671;49.990;8.028;2023-09-18T08:56:00;842.88;;;777.80;;
23009;SDS011;11671;49.990;8.028;2023-09-18T08:58:31;835.45;;;770.85;;
23009;SDS011;11671;49.990;8.028;2023-09-18T09:01:03;829.92;;;765.92;;
23009;SDS011;11671;49.990;8.028;2023-09-18T09:03:31;845.63;;;780.33;;
23009;SDS011;11671;49.990;8.028;2023-09-18T09:05:59;844.90;;;779.72;;
23009;SDS011;11671;49.990;8.028;2023-09-18T09:08:27;852.47;;;786.70;;
23009;SDS011;11671;49.990;8.028;2023-09-18T09:10:53;847.58;;;782.35;;
23009;SDS011;11671;49.990;8.028;2023-09-18T09:15:50;843.92;;;779.50;;
23009;SDS011;11671;49.990;8.028;2023-09-18T09:18:18;858.58;;;792.85;;
23009;SDS011;11671;49.990;8.028;2023-09-18T09:23:26;835.35;;;771.42;;
23009;SDS011;11671;49.990;8.028;2023-09-18T09:25:53;846.17;;;781.20;;
23009;SDS011;11671;49.990;8.028;2023-09-18T09:28:29;857.63;;;791.97;;
23009;SDS011;11671;49.990;8.028;2023-09-18T09:31:01;868.88;;;802.45;;
23009;SDS011;11671;49.990;8.028;2023-09-18T09:33:27;857.22;;;791.60;;
23009;SDS011;11671;49.990;8.028;2023-09-18T09:35:54;843.55;;;778.83;;
23009;SDS011;11671;49.990;8.028;2023-09-18T09:38:27;851.03;;;785.80;;
23009;SDS011;11671;49.990;8.028;2023-09-18T09:40:56;853.70;;;788.40;;
23009;SDS011;11671;49.990;8.028;2023-09-18T09:43:24;835.17;;;771.20;;
23009;SDS011;11671;49.990;8.028;2023-09-18T09:45:56;855.17;;;789.75;;
23009;SDS011;11671;49.990;8.028;2023-09-18T09:48:23;838.63;;;774.03;;
23009;SDS011;11671;49.990;8.028;2023-09-18T09:50:50;828.03;;;764.25;;
23009;SDS011;11671;49.990;8.028;2023-09-18T09:53:17;852.47;;;786.80;;
23009;SDS011;11671;49.990;8.028;2023-09-18T09:55:43;845.40;;;780.60;;
23009;SDS011;11671;49.990;8.028;2023-09-18T09:58:09;846.78;;;781.63;;
23009;SDS011;11671;49.990;8.028;2023-09-18T10:00:49;821.92;;;758.55;;
23009;SDS011;11671;49.990;8.028;2023-09-18T10:03:19;831.72;;;767.33;;
23009;SDS011;11671;49.990;8.028;2023-09-18T10:05:46;802.63;;;740.58;;
23009;SDS011;11671;49.990;8.028;2023-09-18T10:08:19;797.92;;;736.05;;
23009;SDS011;11671;49.990;8.028;2023-09-18T10:10:51;810.15;;;747.17;;
23009;SDS011;11671;49.990;8.028;2023-09-18T10:13:20;834.05;;;769.35;;
23009;SDS011;11671;49.990;8.028;2023-09-18T10:15:53;803.42;;;741.40;;
23009;SDS011;11671;49.990;8.028;2023-09-18T10:18:27;812.17;;;749.38;;
23009;SDS011;11671;49.990;8.028;2023-09-18T10:21:02;793.38;;;732.15;;
23009;SDS011;11671;49.990;8.028;2023-09-18T10:26:04;809.42;;;747.03;;
23009;SDS011;11671;49.990;8.028;2023-09-18T10:28:31;808.10;;;745.72;;
23009;SDS011;11671;49.990;8.028;2023-09-18T10:30:57;822.50;;;758.90;;
23009;SDS011;11671;49.990;8.028;2023-09-18T10:33:24;791.65;;;730.40;;
23009;SDS011;11671;49.990;8.028;2023-09-18T10:35:51;823.20;;;759.65;;
23009;SDS011;11671;49.990;8.028;2023-09-18T10:38:18;821.95;;;758.28;;
23009;SDS011;11671;49.990;8.028;2023-09-18T10:40:46;810.35;;;747.70;;
23009;SDS011;11671;49.990;8.028;2023-09-18T10:43:12;805.03;;;742.58;;
23009;SDS011;11671;49.990;8.028;2023-09-18T10:45:40;794.50;;;732.67;;
23009;SDS011;11671;49.990;8.028;2023-09-18T10:48:07;797.20;;;735.20;;
23009;SDS011;11671;49.990;8.028;2023-09-18T10:50:34;801.90;;;739.45;;
23009;SDS011;11671;49.990;8.028;2023-09-18T10:53:00;805.78;;;742.95;;
23009;SDS011;11671;49.990;8.028;2023-09-18T10:55:26;797.33;;;735.25;;
23009;SDS011;11671;49.990;8.028;2023-09-18T10:57:52;811.72;;;748.35;;
23009;SDS011;11671;49.990;8.028;2023-09-18T11:00:21;811.22;;;748.05;;
23009;SDS011;11671;49.990;8.028;2023-09-18T11:02:53;804.20;;;741.30;;
23009;SDS011;11671;49.990;8.028;2023-09-18T11:05:34;815.22;;;751.67;;
23009;SDS011;11671;49.990;8.028;2023-09-18T11:10:59;798.60;;;736.30;;
23009;SDS011;11671;49.990;8.028;2023-09-18T11:13:43;785.85;;;724.53;;
23009;SDS011;11671;49.990;8.028;2023-09-18T11:18:39;779.33;;;718.05;;
23009;SDS011;11671;49.990;8.028;2023-09-18T11:21:11;778.97;;;717.75;;
23009;SDS011;11671;49.990;8.028;2023-09-18T11:23:38;788.33;;;726.25;;
23009;SDS011;11671;49.990;8.028;2023-09-18T11:26:10;780.00;;;718.58;;
23009;SDS011;11671;49.990;8.028;2023-09-18T11:28:37;778.53;;;717.08;;
23009;SDS011;11671;49.990;8.028;2023-09-18T11:31:03;786.67;;;724.50;;
23009;SDS011;11671;49.990;8.028;2023-09-18T11:33:35;772.28;;;711.58;;
23009;SDS011;11671;49.990;8.028;2023-09-18T11:36:06;770.78;;;710.08;;
23009;SDS011;11671;49.990;8.028;2023-09-18T11:38:56;761.47;;;701.13;;
23009;SDS011;11671;49.990;8.028;2023-09-18T11:41:23;718.30;;;661.63;;
23009;SDS011;11671;49.990;8.028;2023-09-18T11:43:50;774.88;;;713.42;;
23009;SDS011;11671;49.990;8.028;2023-09-18T11:46:21;762.10;;;701.28;;
23009;SDS011;11671;49.990;8.028;2023-09-18T11:48:47;665.80;;;614.08;;
23009;SDS011;11671;49.990;8.028;2023-09-18T11:51:20;670.03;;;617.67;;
23009;SDS011;11671;49.990;8.028;2023-09-18T11:57:08;670.88;;;618.35;;
23009;SDS011;11671;49.990;8.028;2023-09-18T11:59:35;678.72;;;625.53;;
23009;SDS011;11671;49.990;8.028;2023-09-18T12:02:06;734.75;;;675.85;;
23009;SDS011;11671;49.990;8.028;2023-09-18T12:04:33;661.90;;;610.22;;
23009;SDS011;11671;49.990;8.028;2023-09-18T12:06:59;669.10;;;616.40;;
23009;SDS011;11671;49.990;8.028;2023-09-18T12:09:31;654.58;;;603.38;;
23009;SDS011;11671;49.990;8.028;2023-09-18T12:11:59;676.13;;;622.72;;
23009;SDS011;11671;49.990;8.028;2023-09-18T12:14:30;764.80;;;703.50;;
23009;SDS011;11671;49.990;8.028;2023-09-18T12:16:56;643.60;;;593.47;;
23009;SDS011;11671;49.990;8.028;2023-09-18T12:19:22;662.70;;;611.03;;
23009;SDS011;11671;49.990;8.028;2023-09-18T12:21:48;661.70;;;610.22;;
23009;SDS011;11671;49.990;8.028;2023-09-18T12:24:14;655.65;;;604.72;;
23009;SDS011;11671;49.990;8.028;2023-09-18T12:26:51;662.45;;;611.05;;
23009;SDS011;11671;49.990;8.028;2023-09-18T12:29:18;765.33;;;704.25;;
23009;SDS011;11671;49.990;8.028;2023-09-18T12:31:44;720.58;;;663.42;;
23009;SDS011;11671;49.990;8.028;2023-09-18T12:34:17;730.80;;;672.78;;
23009;SDS011;11671;49.990;8.028;2023-09-18T12:36:43;756.05;;;695.97;;
23009;SDS011;11671;49.990;8.028;2023-09-18T12:39:13;688.38;;;635.00;;
23009;SDS011;11671;49.990;8.028;2023-09-18T12:41:45;687.00;;;633.63;;
23009;SDS011;11671;49.990;8.028;2023-09-18T12:44:12;668.45;;;616.72;;
23009;SDS011;11671;49.990;8.028;2023-09-18T12:46:39;674.40;;;622.00;;
23009;SDS011;11671;49.990;8.028;2023-09-18T12:49:21;652.97;;;602.53;;
23009;SDS011;11671;49.990;8.028;2023-09-18T12:51:56;723.90;;;665.88;;
23009;SDS011;11671;49.990;8.028;2023-09-18T12:57:10;733.13;;;674.47;;
23009;SDS011;11671;49.990;8.028;2023-09-18T12:59:40;702.17;;;646.45;;
23009;SDS011;11671;49.990;8.028;2023-09-18T13:02:06;704.33;;;648.35;;
23009;SDS011;11671;49.990;8.028;2023-09-18T13:04:33;709.60;;;653.17;;
23009;SDS011;11671;49.990;8.028;2023-09-18T13:07:11;702.72;;;647.10;;
23009;SDS011;11671;49.990;8.028;2023-09-18T13:09:41;684.90;;;630.72;;
23009;SDS011;11671;49.990;8.028;2023-09-18T13:12:07;695.88;;;640.70;;
23009;SDS011;11671;49.990;8.028;2023-09-18T13:17:37;712.22;;;655.63;;
23009;SDS011;11671;49.990;8.028;2023-09-18T13:20:16;691.88;;;637.35;;
23009;SDS011;11671;49.990;8.028;2023-09-18T13:22:54;684.75;;;630.85;;
23009;SDS011;11671;49.990;8.028;2023-09-18T13:27:48;701.13;;;645.03;;
23009;SDS011;11671;49.990;8.028;2023-09-18T13:30:14;679.60;;;625.67;;
23009;SDS011;11671;49.990;8.028;2023-09-18T13:32:42;690.03;;;634.70;;
23009;SDS011;11671;49.990;8.028;2023-09-18T13:35:09;685.38;;;630.38;;
23009;SDS011;11671;49.990;8.028;2023-09-18T13:37:36;668.97;;;615.15;;
23009;SDS011;11671;49.990;8.028;2023-09-18T13:43:08;677.03;;;622.25;;
23009;SDS011;11671;49.990;8.028;2023-09-18T13:45:34;610.03;;;561.70;;
23009;SDS011;11671;49.990;8.028;2023-09-18T13:48:01;578.58;;;532.88;;
23009;SDS011;11671;49.990;8.028;2023-09-18T13:50:31;569.50;;;524.08;;
23009;SDS011;11671;49.990;8.028;2023-09-18T13:53:01;540.55;;;497.30;;
23009;SDS011;11671;49.990;8.028;2023-09-18T13:55:28;563.05;;;517.92;;
23009;SDS011;11671;49.990;8.028;2023-09-18T13:57:54;543.72;;;500.15;;
23009;SDS011;11671;49.990;8.028;2023-09-18T14:00:21;540.40;;;496.75;;
23009;SDS011;11671;49.990;8.028;2023-09-18T14:02:47;532.58;;;489.95;;
23009;SDS011;11671;49.990;8.028;2023-09-18T14:05:12;560.03;;;515.08;;
23009;SDS011;11671;49.990;8.028;2023-09-18T14:07:38;554.78;;;510.38;;
23009;SDS011;11671;49.990;8.028;2023-09-18T14:10:05;592.70;;;544.50;;
23009;SDS011;11671;49.990;8.028;2023-09-18T14:12:35;540.15;;;496.83;;
23009;SDS011;11671;49.990;8.028;2023-09-18T14:15:05;579.33;;;532.42;;
23009;SDS011;11671;49.990;8.028;2023-09-18T14:17:33;507.33;;;466.63;;
23009;SDS011;11671;49.990;8.028;2023-09-18T14:19:59;525.67;;;483.25;;
23009;SDS011;11671;49.990;8.028;2023-09-18T14:22:25;609.10;;;559.80;;
23009;SDS011;11671;49.990;8.028;2023-09-18T14:24:51;571.22;;;525.55;;
23009;SDS011;11671;49.990;8.028;2023-09-18T14:27:16;557.47;;;512.92;;
23009;SDS011;11671;49.990;8.028;2023-09-18T14:29:42;553.53;;;509.65;;
23009;SDS011;11671;49.990;8.028;2023-09-18T14:32:08;545.55;;;502.42;;
23009;SDS011;11671;49.990;8.028;2023-09-18T14:34:34;569.08;;;524.33;;
23009;SDS011;11671;49.990;8.028;2023-09-18T14:37:04;545.83;;;503.23;;
23009;SDS011;11671;49.990;8.028;2023-09-18T14:39:32;576.15;;;531.25;;
23009;SDS011;11671;49.990;8.028;2023-09-18T14:41:59;557.55;;;514.30;;
23009;SDS011;11671;49.990;8.028;2023-09-18T14:44:25;580.83;;;535.85;;
23009;SDS011;11671;49.990;8.028;2023-09-18T14:46:52;563.95;;;520.50;;
23009;SDS011;11671;49.990;8.028;2023-09-18T14:49:18;560.17;;;516.85;;
23009;SDS011;11671;49.990;8.028;2023-09-18T14:51:44;576.50;;;531.63;;
23009;SDS011;11671;49.990;8.028;2023-09-18T14:54:10;567.72;;;524.03;;
23009;SDS011;11671;49.990;8.028;2023-09-18T14:56:36;550.40;;;508.17;;
23009;SDS011;11671;49.990;8.028;2023-09-18T14:59:03;539.45;;;497.88;;
23009;SDS011;11671;49.990;8.028;2023-09-18T15:01:31;554.17;;;510.80;;
23009;SDS011;11671;49.990;8.028;2023-09-18T15:03:57;532.63;;;491.25;;
23009;SDS011;11671;49.990;8.028;2023-09-18T15:06:23;552.03;;;508.77;;
23009;SDS011;11671;49.990;8.028;2023-09-18T15:08:51;547.70;;;504.83;;
23009;SDS011;11671;49.990;8.028;2023-09-18T15:11:16;535.85;;;493.88;;
23009;SDS011;11671;49.990;8.028;2023-09-18T15:13:42;523.97;;;483.02;;
23009;SDS011;11671;49.990;8.028;2023-09-18T15:16:08;545.83;;;503.17;;
23009;SDS011;11671;49.990;8.028;2023-09-18T15:18:34;535.92;;;494.30;;
23009;SDS011;11671;49.990;8.028;2023-09-18T15:21:00;556.58;;;513.10;;
23009;SDS011;11671;49.990;8.028;2023-09-18T15:23:27;559.00;;;515.33;;
23009;SDS011;11671;49.990;8.028;2023-09-18T15:25:54;549.85;;;507.25;;
23009;SDS011;11671;49.990;8.028;2023-09-18T15:28:21;534.38;;;493.02;;
23009;SDS011;11671;49.990;8.028;2023-09-18T15:30:49;537.00;;;495.60;;
23009;SDS011;11671;49.990;8.028;2023-09-18T15:33:15;549.22;;;506.45;;
23009;SDS011;11671;49.990;8.028;2023-09-18T15:35:47;539.53;;;497.75;;
23009;SDS011;11671;49.990;8.028;2023-09-18T15:38:19;543.50;;;501.42;;
23009;SDS011;11671;49.990;8.028;2023-09-18T15:40:45;547.72;;;505.52;;
23009;SDS011;11671;49.990;8.028;2023-09-18T15:43:11;573.35;;;528.85;;
23009;SDS011;11671;49.990;8.028;2023-09-18T15:45:37;565.45;;;522.13;;
23009;SDS011;11671;49.990;8.028;2023-09-18T15:48:03;584.08;;;539.17;;
23009;SDS011;11671;49.990;8.028;2023-09-18T15:50:32;581.65;;;536.95;;
23009;SDS011;11671;49.990;8.028;2023-09-18T15:52:59;570.63;;;527.17;;
23009;SDS011;11671;49.990;8.028;2023-09-18T15:55:24;596.80;;;551.20;;
23009;SDS011;11671;49.990;8.028;2023-09-18T15:57:51;584.80;;;540.25;;
23009;SDS011;11671;49.990;8.028;2023-09-18T16:00:17;601.00;;;555.33;;
23009;SDS011;11671;49.990;8.028;2023-09-18T16:02:43;574.83;;;531.60;;
23009;SDS011;11671;49.990;8.028;2023-09-18T16:05:09;612.05;;;565.65;;
23009;SDS011;11671;49.990;8.028;2023-09-18T16:07:36;593.45;;;548.78;;
23009;SDS011;11671;49.990;8.028;2023-09-18T16:10:04;606.55;;;560.35;;
23009;SDS011;11671;49.990;8.028;2023-09-18T16:12:32;663.50;;;612.28;;
23009;SDS011;11671;49.990;8.028;2023-09-18T16:14:58;702.65;;;647.78;;
23009;SDS011;11671;49.990;8.028;2023-09-18T16:17:25;674.80;;;622.58;;
23009;SDS011;11671;49.990;8.028;2023-09-18T16:19:51;669.10;;;617.95;;
23009;SDS011;11671;49.990;8.028;2023-09-18T16:22:16;658.38;;;608.13;;
23009;SDS011;11671;49.990;8.028;2023-09-18T16:24:42;664.67;;;613.88;;
23009;SDS011;11671;49.990;8.028;2023-09-18T16:27:08;658.28;;;608.08;;
23009;SDS011;11671;49.990;8.028;2023-09-18T16:29:34;657.53;;;607.38;;
23009;SDS011;11671;49.990;8.028;2023-09-18T16:31:59;680.08;;;627.85;;
23009;SDS011;11671;49.990;8.028;2023-09-18T16:34:25;669.08;;;618.25;;
23009;SDS011;11671;49.990;8.028;2023-09-18T16:36:51;661.13;;;610.90;;
23009;SDS011;11671;49.990;8.028;2023-09-18T16:39:17;683.75;;;631.38;;
23009;SDS011;11671;49.990;8.028;2023-09-18T16:41:43;669.58;;;618.85;;
23009;SDS011;11671;49.990;8.028;2023-09-18T16:44:09;676.22;;;624.70;;
23009;SDS011;11671;49.990;8.028;2023-09-18T16:46:36;666.03;;;615.35;;
23009;SDS011;11671;49.990;8.028;2023-09-18T16:49:02;682.72;;;630.40;;
23009;SDS011;11671;49.990;8.028;2023-09-18T16:51:29;675.17;;;623.97;;
23009;SDS011;11671;49.990;8.028;2023-09-18T16:53:55;684.15;;;631.95;;
23009;SDS011;11671;49.990;8.028;2023-09-18T16:56:21;685.40;;;633.38;;
23009;SDS011;11671;49.990;8.028;2023-09-18T16:58:47;667.35;;;616.70;;
23009;SDS011;11671;49.990;8.028;2023-09-18T17:01:16;656.90;;;607.70;;